CJD3 weather

Birch Hills Airport
Birch Hills, Saskatchewan, Canada

Public forecast

Using degrees Celsius for public forecast. Weather courtesy of forecast.io.

Closest aviation weather report (METAR) to Birch Hills Airport

Closest report is Prince Albert Glass Field, 15.7 nm (29.1 km) NNW. Retrieved 2020/07/10 11:37 UTC (11 minutes ago):

CYPA 101137Z 07003KT 1/8SM R08/1200FT/N FG BKN250 09/09 A2995 RMK FG3CI2 SLP153

Closest aviation forecast (TAF) to Birch Hills Airport

Forecast is more than 6 hours old.

Closest forecast is Prince Albert Glass Field, 15.7 nm (29.1 km) NNW. Retrieved 2020-07-10 01:00 UTC (11 hours ago):

TAF CYPA 100038Z 1001/1004 02008KT P6SM FEW030 RMK NXT FCST WILL BE ISSUED AT 101345Z